Time,TemperatureF,DewpointF,PressureIn,WindDirection,WindDirectionDegrees,WindSpeedMPH,WindSpeedGustMPH,Humidity,HourlyPrecipIn,Conditions,Clouds,dailyrainin,SoftwareType,DateUTC
2013-06-15 00:02:00,71.1,61.0,30.00,ENE,63,0.0,0.0,71,0.00,,,0.00,weatherlink.com 1.10,2013-06-15 04:02:00,
2013-06-15 00:17:00,69.7,61.0,30.01,ENE,63,0.0,0.0,75,0.00,,,0.00,weatherlink.com 1.10,2013-06-15 04:17:00,
2013-06-15 00:32:00,69.0,62.0,30.01,ENE,62,0.0,0.0,77,0.00,,,0.00,weatherlink.com 1.10,2013-06-15 04:32:00,
2013-06-15 00:47:00,68.4,62.0,30.02,ENE,60,0.0,0.0,81,0.00,,,0.00,weatherlink.com 1.10,2013-06-15 04:47:00,
2013-06-15 01:02:00,67.9,63.0,30.02,ENE,61,0.0,0.0,83,0.00,,,0.00,weatherlink.com 1.10,2013-06-15 05:02:00,
2013-06-15 01:18:00,67.4,62.0,30.03,ENE,61,0.0,0.0,83,0.00,,,0.00,weatherlink.com 1.10,2013-06-15 05:18:00,
2013-06-15 01:33:00,66.7,62.0,30.03,ENE,62,0.0,0.0,84,0.00,,,0.00,weatherlink.com 1.10,2013-06-15 05:33:00,
2013-06-15 01:48:00,66.4,62.0,30.03,ENE,60,0.0,0.0,84,0.00,,,0.00,weatherlink.com 1.10,2013-06-15 05:48:00,
2013-06-15 02:03:00,65.9,62.0,30.04,ENE,61,0.0,0.0,86,0.00,,,0.00,weatherlink.com 1.10,2013-06-15 06:03:00,
2013-06-15 02:18:00,65.9,62.0,30.04,ENE,61,0.0,0.0,86,0.00,,,0.00,weatherlink.com 1.10,2013-06-15 06:18:00,
2013-06-15 02:33:00,65.6,62.0,30.04,ENE,62,0.0,0.0,87,0.00,,,0.00,weatherlink.com 1.10,2013-06-15 06:33:00,
2013-06-15 02:48:00,64.8,61.0,30.04,ENE,61,0.0,0.0,88,0.00,,,0.00,weatherlink.com 1.10,2013-06-15 06:48:00,
2013-06-15 03:03:00,64.4,61.0,30.04,ENE,62,0.0,0.0,89,0.00,,,0.00,weatherlink.com 1.10,2013-06-15 07:03:00,
2013-06-15 03:18:00,63.5,60.0,30.03,ENE,60,0.0,0.0,89,0.00,,,0.00,weatherlink.com 1.10,2013-06-15 07:18:00,
2013-06-15 03:33:00,63.3,61.0,30.04,ENE,62,0.0,0.0,91,0.00,,,0.00,weatherlink.com 1.10,2013-06-15 07:33:00,
2013-06-15 03:48:00,63.7,61.0,30.04,ENE,62,0.0,0.0,91,0.00,,,0.00,weatherlink.com 1.10,2013-06-15 07:48:00,
2013-06-15 04:03:00,63.8,61.0,30.03,ENE,62,0.0,0.0,90,0.00,,,0.00,weatherlink.com 1.10,2013-06-15 08:03:00,
2013-06-15 04:18:00,63.3,60.0,30.04,ENE,62,0.0,0.0,90,0.00,,,0.00,weatherlink.com 1.10,2013-06-15 08:18:00,
2013-06-15 04:33:00,63.4,61.0,30.04,ENE,62,0.0,0.0,92,0.00,,,0.00,weatherlink.com 1.10,2013-06-15 08:33:00,
2013-06-15 04:48:00,63.7,61.0,30.04,ENE,62,0.0,0.0,92,0.00,,,0.00,weatherlink.com 1.10,2013-06-15 08:48:00,
2013-06-15 05:03:00,63.5,61.0,30.03,ENE,62,0.0,0.0,92,0.00,,,0.00,weatherlink.com 1.10,2013-06-15 09:03:00,
2013-06-15 05:18:00,63.0,61.0,30.04,ENE,62,0.0,0.0,92,0.00,,,0.00,weatherlink.com 1.10,2013-06-15 09:18:00,
2013-06-15 05:33:00,62.4,60.0,30.04,ENE,61,0.0,0.0,93,0.00,,,0.00,weatherlink.com 1.10,2013-06-15 09:33:00,
2013-06-15 05:48:00,62.4,61.0,30.04,ENE,62,0.0,0.0,94,0.00,,,0.00,weatherlink.com 1.10,2013-06-15 09:48:00,
2013-06-15 06:03:00,62.2,61.0,30.04,ENE,62,0.0,0.0,94,0.00,,,0.00,weatherlink.com 1.10,2013-06-15 10:03:00,
2013-06-15 06:18:00,61.7,60.0,30.05,ENE,62,0.0,0.0,94,0.00,,,0.00,weatherlink.com 1.10,2013-06-15 10:18:00,
2013-06-15 06:33:00,61.9,61.0,30.05,ENE,61,0.0,0.0,95,0.00,,,0.00,weatherlink.com 1.10,2013-06-15 10:33:00,
2013-06-15 06:48:00,62.2,61.0,30.06,ENE,61,0.0,0.0,95,0.00,,,0.00,weatherlink.com 1.10,2013-06-15 10:48:00,
2013-06-15 07:03:00,64.2,63.0,30.07,ENE,61,0.0,0.0,95,0.00,,,0.00,weatherlink.com 1.10,2013-06-15 11:03:00,
2013-06-15 07:18:00,67.3,64.0,30.07,ENE,62,0.0,1.0,88,0.00,,,0.00,weatherlink.com 1.10,2013-06-15 11:18:00,
2013-06-15 07:33:00,70.0,65.0,30.08,North,8,0.0,0.0,84,0.00,,,0.00,weatherlink.com 1.10,2013-06-15 11:33:00,
2013-06-15 07:48:00,72.0,66.0,30.08,North,9,0.0,0.0,81,0.00,,,0.00,weatherlink.com 1.10,2013-06-15 11:48:00,
2013-06-15 08:03:00,74.4,67.0,30.09,NNE,20,0.0,0.0,78,0.00,,,0.00,weatherlink.com 1.10,2013-06-15 12:03:00,
2013-06-15 08:19:00,75.7,68.0,30.10,ENE,71,0.0,2.0,76,0.00,,,0.00,weatherlink.com 1.10,2013-06-15 12:19:00,
2013-06-15 08:34:00,77.2,68.0,30.10,East,80,1.0,1.0,73,0.00,,,0.00,weatherlink.com 1.10,2013-06-15 12:34:00,
2013-06-15 08:49:00,78.1,67.0,30.11,ESE,112,0.0,3.0,69,0.00,,,0.00,weatherlink.com 1.10,2013-06-15 12:49:00,
2013-06-15 09:04:00,78.2,66.0,30.11,East,83,3.0,5.0,66,0.00,,,0.00,weatherlink.com 1.10,2013-06-15 13:04:00,
2013-06-15 09:19:00,78.9,67.0,30.11,ESE,109,0.0,3.0,66,0.00,,,0.00,weatherlink.com 1.10,2013-06-15 13:19:00,
2013-06-15 09:34:00,79.5,65.0,30.12,ENE,76,1.0,4.0,61,0.00,,,0.00,weatherlink.com 1.10,2013-06-15 13:34:00,
2013-06-15 09:49:00,80.4,64.0,30.12,ESE,118,2.0,3.0,58,0.00,,,0.00,weatherlink.com 1.10,2013-06-15 13:49:00,
2013-06-15 10:04:00,80.0,63.0,30.12,ESE,111,2.0,6.0,57,0.00,,,0.00,weatherlink.com 1.10,2013-06-15 14:04:00,
2013-06-15 10:19:00,80.1,62.0,30.12,ESE,107,2.0,5.0,55,0.00,,,0.00,weatherlink.com 1.10,2013-06-15 14:19:00,
2013-06-15 10:34:00,80.8,63.0,30.13,East,87,4.0,6.0,55,0.00,,,0.00,weatherlink.com 1.10,2013-06-15 14:34:00,
2013-06-15 10:49:00,80.4,63.0,30.12,SE,146,1.0,5.0,56,0.00,,,0.00,weatherlink.com 1.10,2013-06-15 14:49:00,
2013-06-15 11:04:00,80.5,61.0,30.12,SE,139,4.0,8.0,51,0.00,,,0.00,weatherlink.com 1.10,2013-06-15 15:04:00,
2013-06-15 11:19:00,80.8,60.0,30.13,SSW,196,6.0,9.0,50,0.00,,,0.00,weatherlink.com 1.10,2013-06-15 15:19:00,
2013-06-15 11:34:00,80.6,60.0,30.14,ENE,77,4.0,8.0,49,0.00,,,0.00,weatherlink.com 1.10,2013-06-15 15:34:00,
2013-06-15 11:49:00,81.2,61.0,30.14,ESE,106,6.0,7.0,51,0.00,,,0.00,weatherlink.com 1.10,2013-06-15 15:49:00,
2013-06-15 12:04:00,80.8,59.0,30.14,ENE,76,2.0,8.0,47,0.00,,,0.00,weatherlink.com 1.10,2013-06-15 16:04:00,
2013-06-15 12:19:00,81.3,61.0,30.13,SSE,150,4.0,8.0,51,0.00,,,0.00,weatherlink.com 1.10,2013-06-15 16:19:00,
2013-06-15 12:34:00,81.1,60.0,30.12,WSW,250,0.0,9.0,49,0.00,,,0.00,weatherlink.com 1.10,2013-06-15 16:34:00,
2013-06-15 12:49:00,81.2,61.0,30.13,East,98,6.0,7.0,50,0.00,,,0.00,weatherlink.com 1.10,2013-06-15 16:49:00,
2013-06-15 13:04:00,81.0,59.0,30.12,South,174,2.0,12.0,47,0.00,,,0.00,weatherlink.com 1.10,2013-06-15 17:04:00,
2013-06-15 13:19:00,81.4,59.0,30.12,SE,134,3.0,9.0,46,0.00,,,0.00,weatherlink.com 1.10,2013-06-15 17:19:00,
2013-06-15 13:34:00,81.7,57.0,30.11,South,180,5.0,9.0,43,0.00,,,0.00,weatherlink.com 1.10,2013-06-15 17:34:00,
2013-06-15 13:49:00,81.6,57.0,30.11,SSW,198,5.0,9.0,43,0.00,,,0.00,weatherlink.com 1.10,2013-06-15 17:49:00,
2013-06-15 14:04:00,81.5,56.0,30.12,SSE,149,5.0,10.0,42,0.00,,,0.00,weatherlink.com 1.10,2013-06-15 18:04:00,
2013-06-15 14:19:00,82.2,54.0,30.12,SSE,151,5.0,9.0,38,0.00,,,0.00,weatherlink.com 1.10,2013-06-15 18:19:00,
2013-06-15 14:34:00,82.5,56.0,30.11,East,100,3.0,8.0,41,0.00,,,0.00,weatherlink.com 1.10,2013-06-15 18:34:00,
2013-06-15 14:49:00,82.3,53.0,30.11,SE,137,2.0,9.0,36,0.00,,,0.00,weatherlink.com 1.10,2013-06-15 18:49:00,
2013-06-15 15:04:00,83.3,54.0,30.11,South,175,4.0,7.0,36,0.00,,,0.00,weatherlink.com 1.10,2013-06-15 19:04:00,
2013-06-15 15:19:00,82.7,56.0,30.11,SSE,151,0.0,8.0,40,0.00,,,0.00,weatherlink.com 1.10,2013-06-15 19:19:00,
2013-06-15 15:34:00,82.1,52.0,30.10,SW,225,3.0,11.0,35,0.00,,,0.00,weatherlink.com 1.10,2013-06-15 19:34:00,
2013-06-15 15:49:00,82.3,53.0,30.11,SE,132,4.0,9.0,37,0.00,,,0.00,weatherlink.com 1.10,2013-06-15 19:49:00,
2013-06-15 16:04:00,82.5,54.0,30.11,WNW,289,7.0,9.0,38,0.00,,,0.00,weatherlink.com 1.10,2013-06-15 20:04:00,
2013-06-15 16:19:00,82.0,56.0,30.10,SW,234,2.0,8.0,41,0.00,,,0.00,weatherlink.com 1.10,2013-06-15 20:19:00,
2013-06-15 16:34:00,82.2,56.0,30.10,SW,225,1.0,6.0,41,0.00,,,0.00,weatherlink.com 1.10,2013-06-15 20:34:00,
2013-06-15 16:49:00,81.7,52.0,30.10,East,99,3.0,8.0,36,0.00,,,0.00,weatherlink.com 1.10,2013-06-15 20:49:00,
2013-06-15 17:04:00,82.2,56.0,30.10,WSW,239,5.0,6.0,40,0.00,,,0.00,weatherlink.com 1.10,2013-06-15 21:04:00,
2013-06-15 17:19:00,81.7,54.0,30.10,SW,220,4.0,12.0,39,0.00,,,0.00,weatherlink.com 1.10,2013-06-15 21:19:00,
2013-06-15 17:34:00,81.6,56.0,30.10,SW,232,4.0,7.0,42,0.00,,,0.00,weatherlink.com 1.10,2013-06-15 21:34:00,
2013-06-15 17:49:00,81.7,58.0,30.09,SE,125,2.0,8.0,45,0.00,,,0.00,weatherlink.com 1.10,2013-06-15 21:49:00,
2013-06-15 18:04:00,80.9,59.0,30.09,South,182,2.0,9.0,48,0.00,,,0.00,weatherlink.com 1.10,2013-06-15 22:04:00,
2013-06-15 18:19:00,80.0,60.0,30.09,WSW,241,2.0,7.0,50,0.00,,,0.00,weatherlink.com 1.10,2013-06-15 22:19:00,
2013-06-15 18:34:00,79.6,60.0,30.09,SE,133,4.0,7.0,51,0.00,,,0.00,weatherlink.com 1.10,2013-06-15 22:34:00,
2013-06-15 18:53:00,79.2,62.0,30.09,SW,227,1.0,5.0,55,0.00,,,0.00,weatherlink.com 1.10,2013-06-15 22:53:00,
2013-06-15 19:05:00,78.4,61.0,30.09,SW,220,4.0,6.0,56,0.00,,,0.00,weatherlink.com 1.10,2013-06-15 23:05:00,
2013-06-15 19:20:00,77.8,62.0,30.10,West,272,1.0,6.0,59,0.00,,,0.00,weatherlink.com 1.10,2013-06-15 23:20:00,
2013-06-15 19:35:00,77.3,62.0,30.10,WSW,248,1.0,6.0,59,0.00,,,0.00,weatherlink.com 1.10,2013-06-15 23:35:00,
2013-06-15 19:50:00,76.5,63.0,30.10,South,184,0.0,3.0,63,0.00,,,0.00,weatherlink.com 1.10,2013-06-15 23:50:00,
2013-06-15 20:05:00,75.7,62.0,30.10,SSW,192,1.0,3.0,63,0.00,,,0.00,weatherlink.com 1.10,2013-06-16 00:05:00,
2013-06-15 20:20:00,74.8,62.0,30.10,SW,215,1.0,4.0,65,0.00,,,0.00,weatherlink.com 1.10,2013-06-16 00:20:00,
2013-06-15 20:35:00,73.8,62.0,30.09,SW,219,0.0,1.0,67,0.00,,,0.00,weatherlink.com 1.10,2013-06-16 00:35:00,
2013-06-15 20:50:00,72.9,63.0,30.10,SSW,203,0.0,0.0,70,0.00,,,0.00,weatherlink.com 1.10,2013-06-16 00:50:00,
2013-06-15 21:05:00,71.8,63.0,30.10,SSW,203,0.0,0.0,73,0.00,,,0.00,weatherlink.com 1.10,2013-06-16 01:05:00,
2013-06-15 21:20:00,70.9,63.0,30.10,SSW,203,0.0,0.0,75,0.00,,,0.00,weatherlink.com 1.10,2013-06-16 01:20:00,
2013-06-15 21:35:00,70.4,63.0,30.10,SSW,203,0.0,0.0,78,0.00,,,0.00,weatherlink.com 1.10,2013-06-16 01:35:00,
2013-06-15 21:50:00,70.3,63.0,30.10,SSW,203,0.0,1.0,78,0.00,,,0.00,weatherlink.com 1.10,2013-06-16 01:50:00,
2013-06-15 22:05:00,70.0,63.0,30.11,SSW,203,0.0,1.0,79,0.00,,,0.00,weatherlink.com 1.10,2013-06-16 02:05:00,
2013-06-15 22:20:00,70.1,64.0,30.11,SSW,210,0.0,1.0,80,0.00,,,0.00,weatherlink.com 1.10,2013-06-16 02:20:00,
2013-06-15 22:35:00,69.3,64.0,30.12,SSW,210,0.0,0.0,82,0.00,,,0.00,weatherlink.com 1.10,2013-06-16 02:35:00,
2013-06-15 22:50:00,69.1,64.0,30.12,SSW,209,0.0,0.0,83,0.00,,,0.00,weatherlink.com 1.10,2013-06-16 02:50:00,
2013-06-15 23:05:00,68.9,64.0,30.12,SSW,210,0.0,0.0,83,0.00,,,0.00,weatherlink.com 1.10,2013-06-16 03:05:00,
2013-06-15 23:20:00,68.5,64.0,30.12,SSW,210,0.0,0.0,84,0.00,,,0.00,weatherlink.com 1.10,2013-06-16 03:20:00,
2013-06-15 23:35:00,68.3,64.0,30.13,SSW,210,0.0,0.0,85,0.00,,,0.00,weatherlink.com 1.10,2013-06-16 03:35:00,
2013-06-15 23:50:00,67.7,64.0,30.13,SSW,210,0.0,0.0,87,0.00,,,0.00,weatherlink.com 1.10,2013-06-16 03:50:00,